sensor_id;sensor_type;location;lat;lon;timestamp;temperature;humidity
24252;DHT22;12380;51.118;4.176;2024-03-02T00:00:08;6.80;99.90
24252;DHT22;12380;51.118;4.176;2024-03-02T00:02:40;6.80;99.90
24252;DHT22;12380;51.118;4.176;2024-03-02T00:05:06;6.80;99.90
24252;DHT22;12380;51.118;4.176;2024-03-02T00:07:32;6.80;99.90
24252;DHT22;12380;51.118;4.176;2024-03-02T00:09:58;6.80;99.90
24252;DHT22;12380;51.118;4.176;2024-03-02T00:12:24;6.80;99.90
24252;DHT22;12380;51.118;4.176;2024-03-02T00:14:51;6.70;99.90
24252;DHT22;12380;51.118;4.176;2024-03-02T00:17:25;6.70;99.90
24252;DHT22;12380;51.118;4.176;2024-03-02T00:19:51;6.70;99.90
24252;DHT22;12380;51.118;4.176;2024-03-02T00:22:17;6.60;99.90
24252;DHT22;12380;51.118;4.176;2024-03-02T00:24:43;6.70;99.90
24252;DHT22;12380;51.118;4.176;2024-03-02T00:27:09;6.80;99.90
24252;DHT22;12380;51.118;4.176;2024-03-02T00:29:38;6.70;99.90
24252;DHT22;12380;51.118;4.176;2024-03-02T00:32:09;6.80;99.90
24252;DHT22;12380;51.118;4.176;2024-03-02T00:34:37;6.70;99.90
24252;DHT22;12380;51.118;4.176;2024-03-02T00:37:03;6.70;99.90
24252;DHT22;12380;51.118;4.176;2024-03-02T00:39:28;6.80;99.90
24252;DHT22;12380;51.118;4.176;2024-03-02T00:41:54;6.70;99.90
24252;DHT22;12380;51.118;4.176;2024-03-02T00:44:20;6.80;99.90
24252;DHT22;12380;51.118;4.176;2024-03-02T00:46:49;6.70;99.90
24252;DHT22;12380;51.118;4.176;2024-03-02T00:49:18;6.80;99.90
24252;DHT22;12380;51.118;4.176;2024-03-02T00:51:50;6.80;99.90
24252;DHT22;12380;51.118;4.176;2024-03-02T00:54:25;6.80;99.90
24252;DHT22;12380;51.118;4.176;2024-03-02T00:56:52;6.80;99.90
24252;DHT22;12380;51.118;4.176;2024-03-02T00:59:17;6.70;99.90
24252;DHT22;12380;51.118;4.176;2024-03-02T01:01:43;6.80;99.90
24252;DHT22;12380;51.118;4.176;2024-03-02T01:04:11;6.80;99.90
24252;DHT22;12380;51.118;4.176;2024-03-02T01:06:37;6.80;99.90
24252;DHT22;12380;51.118;4.176;2024-03-02T01:09:03;6.80;99.90
24252;DHT22;12380;51.118;4.176;2024-03-02T01:11:31;6.80;99.90
24252;DHT22;12380;51.118;4.176;2024-03-02T01:13:57;6.80;99.90
24252;DHT22;12380;51.118;4.176;2024-03-02T01:16:25;6.80;99.90
24252;DHT22;12380;51.118;4.176;2024-03-02T01:18:55;6.80;99.90
24252;DHT22;12380;51.118;4.176;2024-03-02T01:21:20;6.90;99.90
24252;DHT22;12380;51.118;4.176;2024-03-02T01:23:48;6.90;99.90
24252;DHT22;12380;51.118;4.176;2024-03-02T01:26:14;6.80;99.90
24252;DHT22;12380;51.118;4.176;2024-03-02T01:28:40;6.80;99.90
24252;DHT22;12380;51.118;4.176;2024-03-02T01:31:05;6.70;99.90
24252;DHT22;12380;51.118;4.176;2024-03-02T01:33:31;6.80;99.90
24252;DHT22;12380;51.118;4.176;2024-03-02T01:35:59;6.80;99.90
24252;DHT22;12380;51.118;4.176;2024-03-02T01:38:27;6.80;99.90
24252;DHT22;12380;51.118;4.176;2024-03-02T01:40:54;6.80;99.90
24252;DHT22;12380;51.118;4.176;2024-03-02T01:43:22;6.90;99.90
24252;DHT22;12380;51.118;4.176;2024-03-02T01:45:47;6.90;99.90
24252;DHT22;12380;51.118;4.176;2024-03-02T01:48:13;7.00;99.90
24252;DHT22;12380;51.118;4.176;2024-03-02T01:50:39;6.90;99.90
24252;DHT22;12380;51.118;4.176;2024-03-02T01:53:04;6.90;99.90
24252;DHT22;12380;51.118;4.176;2024-03-02T01:55:30;6.90;99.90
24252;DHT22;12380;51.118;4.176;2024-03-02T01:57:56;6.80;99.90
24252;DHT22;12380;51.118;4.176;2024-03-02T02:00:21;6.70;99.90
24252;DHT22;12380;51.118;4.176;2024-03-02T02:02:47;6.80;99.90
24252;DHT22;12380;51.118;4.176;2024-03-02T02:05:14;6.80;99.90
24252;DHT22;12380;51.118;4.176;2024-03-02T02:07:42;6.80;99.90
24252;DHT22;12380;51.118;4.176;2024-03-02T02:10:08;6.80;99.90
24252;DHT22;12380;51.118;4.176;2024-03-02T02:12:34;6.80;99.90
24252;DHT22;12380;51.118;4.176;2024-03-02T02:15:00;6.80;99.90
24252;DHT22;12380;51.118;4.176;2024-03-02T02:17:25;6.90;74.10
24252;DHT22;12380;51.118;4.176;2024-03-02T02:19:51;6.70;99.90
24252;DHT22;12380;51.118;4.176;2024-03-02T02:22:16;6.70;78.50
24252;DHT22;12380;51.118;4.176;2024-03-02T02:24:42;6.70;49.50
24252;DHT22;12380;51.118;4.176;2024-03-02T02:27:15;6.60;99.90
24252;DHT22;12380;51.118;4.176;2024-03-02T02:29:41;6.70;28.70
24252;DHT22;12380;51.118;4.176;2024-03-02T02:32:07;6.70;1.00
24252;DHT22;12380;51.118;4.176;2024-03-02T02:34:33;6.70;99.90
24252;DHT22;12380;51.118;4.176;2024-03-02T02:36:58;6.70;99.90
24252;DHT22;12380;51.118;4.176;2024-03-02T02:39:24;6.80;99.90
24252;DHT22;12380;51.118;4.176;2024-03-02T02:41:49;6.80;94.10
24252;DHT22;12380;51.118;4.176;2024-03-02T02:44:15;6.80;99.90
24252;DHT22;12380;51.118;4.176;2024-03-02T02:46:41;6.80;99.90
24252;DHT22;12380;51.118;4.176;2024-03-02T02:49:07;6.80;1.00
24252;DHT22;12380;51.118;4.176;2024-03-02T02:51:32;6.80;55.40
24252;DHT22;12380;51.118;4.176;2024-03-02T02:53:58;6.80;1.00
24252;DHT22;12380;51.118;4.176;2024-03-02T02:56:24;6.90;1.00
24252;DHT22;12380;51.118;4.176;2024-03-02T02:58:51;6.80;1.00
24252;DHT22;12380;51.118;4.176;2024-03-02T03:01:17;6.80;1.00
24252;DHT22;12380;51.118;4.176;2024-03-02T03:03:45;6.70;25.40
24252;DHT22;12380;51.118;4.176;2024-03-02T03:06:11;6.80;24.80
24252;DHT22;12380;51.118;4.176;2024-03-02T03:08:36;6.80;1.00
24252;DHT22;12380;51.118;4.176;2024-03-02T03:11:02;6.70;33.40
24252;DHT22;12380;51.118;4.176;2024-03-02T03:13:30;6.90;3.90
24252;DHT22;12380;51.118;4.176;2024-03-02T03:15:56;6.80;1.00
24252;DHT22;12380;51.118;4.176;2024-03-02T03:18:21;6.80;43.60
24252;DHT22;12380;51.118;4.176;2024-03-02T03:20:47;6.90;3.30
24252;DHT22;12380;51.118;4.176;2024-03-02T03:23:15;6.90;1.00
24252;DHT22;12380;51.118;4.176;2024-03-02T03:25:42;7.00;1.00
24252;DHT22;12380;51.118;4.176;2024-03-02T03:28:10;6.90;1.00
24252;DHT22;12380;51.118;4.176;2024-03-02T03:30:37;6.90;1.00
24252;DHT22;12380;51.118;4.176;2024-03-02T03:33:03;6.90;1.00
24252;DHT22;12380;51.118;4.176;2024-03-02T03:35:31;7.00;1.00
24252;DHT22;12380;51.118;4.176;2024-03-02T03:37:56;6.90;1.00
24252;DHT22;12380;51.118;4.176;2024-03-02T03:40:22;6.80;1.00
24252;DHT22;12380;51.118;4.176;2024-03-02T03:42:47;6.90;1.00
24252;DHT22;12380;51.118;4.176;2024-03-02T03:45:14;6.90;1.00
24252;DHT22;12380;51.118;4.176;2024-03-02T03:47:39;6.90;1.00
24252;DHT22;12380;51.118;4.176;2024-03-02T03:50:05;6.90;1.00
24252;DHT22;12380;51.118;4.176;2024-03-02T03:52:32;7.00;99.90
24252;DHT22;12380;51.118;4.176;2024-03-02T03:54:58;7.00;72.90
24252;DHT22;12380;51.118;4.176;2024-03-02T03:57:23;6.90;1.00
24252;DHT22;12380;51.118;4.176;2024-03-02T03:59:49;7.00;1.00
24252;DHT22;12380;51.118;4.176;2024-03-02T04:02:14;6.90;1.00
24252;DHT22;12380;51.118;4.176;2024-03-02T04:04:40;6.80;99.90
24252;DHT22;12380;51.118;4.176;2024-03-02T04:07:05;6.90;99.90
24252;DHT22;12380;51.118;4.176;2024-03-02T04:09:33;6.80;99.90
24252;DHT22;12380;51.118;4.176;2024-03-02T04:11:59;6.90;99.90
24252;DHT22;12380;51.118;4.176;2024-03-02T04:14:24;6.90;99.90
24252;DHT22;12380;51.118;4.176;2024-03-02T04:16:50;7.00;99.90
24252;DHT22;12380;51.118;4.176;2024-03-02T04:19:15;6.90;1.00
24252;DHT22;12380;51.118;4.176;2024-03-02T04:21:43;7.00;1.00
24252;DHT22;12380;51.118;4.176;2024-03-02T04:24:09;7.00;1.00
24252;DHT22;12380;51.118;4.176;2024-03-02T04:26:34;6.90;1.00
24252;DHT22;12380;51.118;4.176;2024-03-02T04:29:00;6.90;1.00
24252;DHT22;12380;51.118;4.176;2024-03-02T04:31:28;7.00;99.90
24252;DHT22;12380;51.118;4.176;2024-03-02T04:33:54;6.90;99.90
24252;DHT22;12380;51.118;4.176;2024-03-02T04:36:19;6.90;93.80
24252;DHT22;12380;51.118;4.176;2024-03-02T04:38:47;6.90;99.90
24252;DHT22;12380;51.118;4.176;2024-03-02T04:41:13;6.90;24.90
24252;DHT22;12380;51.118;4.176;2024-03-02T04:43:39;6.90;34.90
24252;DHT22;12380;51.118;4.176;2024-03-02T04:46:04;6.90;1.00
24252;DHT22;12380;51.118;4.176;2024-03-02T04:48:32;6.90;54.70
24252;DHT22;12380;51.118;4.176;2024-03-02T04:50:57;6.90;1.00
24252;DHT22;12380;51.118;4.176;2024-03-02T04:53:23;6.80;1.00
24252;DHT22;12380;51.118;4.176;2024-03-02T04:55:48;6.80;1.00
24252;DHT22;12380;51.118;4.176;2024-03-02T04:58:23;6.70;1.00
24252;DHT22;12380;51.118;4.176;2024-03-02T05:00:48;6.70;1.00
24252;DHT22;12380;51.118;4.176;2024-03-02T05:03:16;6.70;1.00
24252;DHT22;12380;51.118;4.176;2024-03-02T05:05:42;6.70;1.00
24252;DHT22;12380;51.118;4.176;2024-03-02T05:08:10;6.60;1.00
24252;DHT22;12380;51.118;4.176;2024-03-02T05:10:39;6.60;1.00
24252;DHT22;12380;51.118;4.176;2024-03-02T05:13:05;6.60;1.00
24252;DHT22;12380;51.118;4.176;2024-03-02T05:15:31;6.50;1.00
24252;DHT22;12380;51.118;4.176;2024-03-02T05:17:57;6.50;1.00
24252;DHT22;12380;51.118;4.176;2024-03-02T05:20:23;6.50;1.00
24252;DHT22;12380;51.118;4.176;2024-03-02T05:22:48;6.60;1.00
24252;DHT22;12380;51.118;4.176;2024-03-02T05:25:15;6.60;1.00
24252;DHT22;12380;51.118;4.176;2024-03-02T05:27:40;6.50;1.00
24252;DHT22;12380;51.118;4.176;2024-03-02T05:30:06;6.50;1.00
24252;DHT22;12380;51.118;4.176;2024-03-02T05:32:32;6.50;1.00
24252;DHT22;12380;51.118;4.176;2024-03-02T05:34:58;6.50;32.00
24252;DHT22;12380;51.118;4.176;2024-03-02T05:37:24;6.60;1.00
24252;DHT22;12380;51.118;4.176;2024-03-02T05:39:49;6.50;7.80
24252;DHT22;12380;51.118;4.176;2024-03-02T05:42:15;6.40;99.90
24252;DHT22;12380;51.118;4.176;2024-03-02T05:44:42;6.40;99.90
24252;DHT22;12380;51.118;4.176;2024-03-02T05:47:07;6.50;99.90
24252;DHT22;12380;51.118;4.176;2024-03-02T05:49:34;6.40;99.90
24252;DHT22;12380;51.118;4.176;2024-03-02T05:52:02;6.40;99.90
24252;DHT22;12380;51.118;4.176;2024-03-02T05:54:33;6.40;99.90
24252;DHT22;12380;51.118;4.176;2024-03-02T05:57:01;6.40;1.00
24252;DHT22;12380;51.118;4.176;2024-03-02T05:59:42;6.40;99.90
24252;DHT22;12380;51.118;4.176;2024-03-02T06:02:08;6.20;1.00
24252;DHT22;12380;51.118;4.176;2024-03-02T06:04:34;6.30;1.00
24252;DHT22;12380;51.118;4.176;2024-03-02T06:07:00;6.30;1.00
24252;DHT22;12380;51.118;4.176;2024-03-02T06:09:28;6.30;1.00
24252;DHT22;12380;51.118;4.176;2024-03-02T06:11:58;6.20;1.00
24252;DHT22;12380;51.118;4.176;2024-03-02T06:14:23;6.30;1.00
24252;DHT22;12380;51.118;4.176;2024-03-02T06:16:51;6.10;1.00
24252;DHT22;12380;51.118;4.176;2024-03-02T06:19:17;6.10;1.00
24252;DHT22;12380;51.118;4.176;2024-03-02T06:21:43;6.20;1.00
24252;DHT22;12380;51.118;4.176;2024-03-02T06:24:08;6.20;1.00
24252;DHT22;12380;51.118;4.176;2024-03-02T06:26:36;6.20;1.00
24252;DHT22;12380;51.118;4.176;2024-03-02T06:29:01;6.10;1.00
24252;DHT22;12380;51.118;4.176;2024-03-02T06:31:27;6.10;25.30
24252;DHT22;12380;51.118;4.176;2024-03-02T06:33:53;6.00;99.90
24252;DHT22;12380;51.118;4.176;2024-03-02T06:36:19;6.00;98.80
24252;DHT22;12380;51.118;4.176;2024-03-02T06:38:46;6.00;99.90
24252;DHT22;12380;51.118;4.176;2024-03-02T06:41:12;6.10;99.90
24252;DHT22;12380;51.118;4.176;2024-03-02T06:43:37;6.00;99.90
24252;DHT22;12380;51.118;4.176;2024-03-02T06:46:06;6.00;99.90
24252;DHT22;12380;51.118;4.176;2024-03-02T06:48:34;5.90;99.90
24252;DHT22;12380;51.118;4.176;2024-03-02T06:51:00;6.00;99.90
24252;DHT22;12380;51.118;4.176;2024-03-02T06:53:27;6.10;99.90
24252;DHT22;12380;51.118;4.176;2024-03-02T06:55:53;6.00;99.90
24252;DHT22;12380;51.118;4.176;2024-03-02T06:58:19;6.00;99.90
24252;DHT22;12380;51.118;4.176;2024-03-02T07:00:44;6.00;99.90
24252;DHT22;12380;51.118;4.176;2024-03-02T07:03:13;6.10;99.90
24252;DHT22;12380;51.118;4.176;2024-03-02T07:05:39;6.00;99.90
24252;DHT22;12380;51.118;4.176;2024-03-02T07:08:07;6.10;99.90
24252;DHT22;12380;51.118;4.176;2024-03-02T07:10:33;6.00;99.90
24252;DHT22;12380;51.118;4.176;2024-03-02T07:12:58;6.20;99.90
24252;DHT22;12380;51.118;4.176;2024-03-02T07:15:26;6.10;1.00
24252;DHT22;12380;51.118;4.176;2024-03-02T07:17:52;6.10;99.90
24252;DHT22;12380;51.118;4.176;2024-03-02T07:20:17;6.10;1.00
24252;DHT22;12380;51.118;4.176;2024-03-02T07:22:45;6.20;99.90
24252;DHT22;12380;51.118;4.176;2024-03-02T07:25:11;6.30;1.00
24252;DHT22;12380;51.118;4.176;2024-03-02T07:27:37;6.30;1.00
24252;DHT22;12380;51.118;4.176;2024-03-02T07:30:06;6.40;1.00
24252;DHT22;12380;51.118;4.176;2024-03-02T07:32:34;6.40;1.00
24252;DHT22;12380;51.118;4.176;2024-03-02T07:35:00;6.40;1.00
24252;DHT22;12380;51.118;4.176;2024-03-02T07:37:26;6.40;1.00
24252;DHT22;12380;51.118;4.176;2024-03-02T07:39:52;6.40;1.00
24252;DHT22;12380;51.118;4.176;2024-03-02T07:42:17;6.50;1.00
24252;DHT22;12380;51.118;4.176;2024-03-02T07:44:46;6.60;99.90
24252;DHT22;12380;51.118;4.176;2024-03-02T07:47:14;6.70;99.90
24252;DHT22;12380;51.118;4.176;2024-03-02T07:49:39;6.70;99.90
24252;DHT22;12380;51.118;4.176;2024-03-02T07:52:05;6.80;99.90
24252;DHT22;12380;51.118;4.176;2024-03-02T07:54:31;6.70;99.90
24252;DHT22;12380;51.118;4.176;2024-03-02T07:56:59;6.70;99.90
24252;DHT22;12380;51.118;4.176;2024-03-02T07:59:25;6.70;99.90
24252;DHT22;12380;51.118;4.176;2024-03-02T08:01:50;6.70;99.90
24252;DHT22;12380;51.118;4.176;2024-03-02T08:04:19;6.80;1.00
24252;DHT22;12380;51.118;4.176;2024-03-02T08:06:44;6.90;99.90
24252;DHT22;12380;51.118;4.176;2024-03-02T08:09:10;7.70;99.90
24252;DHT22;12380;51.118;4.176;2024-03-02T08:11:38;8.50;99.90
24252;DHT22;12380;51.118;4.176;2024-03-02T08:14:04;9.20;1.00
24252;DHT22;12380;51.118;4.176;2024-03-02T08:16:30;9.30;1.00
24252;DHT22;12380;51.118;4.176;2024-03-02T08:18:55;9.50;99.90
24252;DHT22;12380;51.118;4.176;2024-03-02T08:21:23;10.30;99.90
24252;DHT22;12380;51.118;4.176;2024-03-02T08:23:49;10.70;1.00
24252;DHT22;12380;51.118;4.176;2024-03-02T08:26:16;10.60;1.00
24252;DHT22;12380;51.118;4.176;2024-03-02T08:28:44;10.60;1.00
24252;DHT22;12380;51.118;4.176;2024-03-02T08:31:13;10.30;1.00
24252;DHT22;12380;51.118;4.176;2024-03-02T08:33:38;10.20;88.90
24252;DHT22;12380;51.118;4.176;2024-03-02T08:36:04;10.40;1.00
24252;DHT22;12380;51.118;4.176;2024-03-02T08:38:32;10.80;57.30
24252;DHT22;12380;51.118;4.176;2024-03-02T08:40:58;11.10;1.00
24252;DHT22;12380;51.118;4.176;2024-03-02T08:43:24;10.40;1.00
24252;DHT22;12380;51.118;4.176;2024-03-02T08:45:50;10.90;99.90
24252;DHT22;12380;51.118;4.176;2024-03-02T08:48:16;11.10;1.00
24252;DHT22;12380;51.118;4.176;2024-03-02T08:50:41;11.00;99.90
24252;DHT22;12380;51.118;4.176;2024-03-02T08:53:09;10.90;1.00
24252;DHT22;12380;51.118;4.176;2024-03-02T08:55:35;11.60;10.10
24252;DHT22;12380;51.118;4.176;2024-03-02T08:58:03;11.70;1.00
24252;DHT22;12380;51.118;4.176;2024-03-02T09:00:31;12.30;1.00
24252;DHT22;12380;51.118;4.176;2024-03-02T09:02:57;10.90;1.00
24252;DHT22;12380;51.118;4.176;2024-03-02T09:05:23;10.10;1.00
24252;DHT22;12380;51.118;4.176;2024-03-02T09:07:48;10.70;1.00
24252;DHT22;12380;51.118;4.176;2024-03-02T09:10:14;10.60;99.90
24252;DHT22;12380;51.118;4.176;2024-03-02T09:12:40;11.10;1.00
24252;DHT22;12380;51.118;4.176;2024-03-02T09:15:05;11.10;1.00
24252;DHT22;12380;51.118;4.176;2024-03-02T09:17:36;10.70;99.90
24252;DHT22;12380;51.118;4.176;2024-03-02T09:20:02;9.90;1.00
24252;DHT22;12380;51.118;4.176;2024-03-02T09:22:29;10.00;1.00
24252;DHT22;12380;51.118;4.176;2024-03-02T09:24:57;10.70;1.00
24252;DHT22;12380;51.118;4.176;2024-03-02T09:27:23;11.50;99.90
24252;DHT22;12380;51.118;4.176;2024-03-02T09:29:50;12.00;1.00
24252;DHT22;12380;51.118;4.176;2024-03-02T09:32:16;12.00;1.00
24252;DHT22;12380;51.118;4.176;2024-03-02T09:34:41;11.20;1.00
24252;DHT22;12380;51.118;4.176;2024-03-02T09:37:09;11.60;99.90
24252;DHT22;12380;51.118;4.176;2024-03-02T09:39:34;11.40;99.90
24252;DHT22;12380;51.118;4.176;2024-03-02T09:42:00;11.00;1.00
24252;DHT22;12380;51.118;4.176;2024-03-02T09:44:26;11.10;1.00
24252;DHT22;12380;51.118;4.176;2024-03-02T09:46:52;11.40;1.00
24252;DHT22;12380;51.118;4.176;2024-03-02T09:49:20;11.40;99.90
24252;DHT22;12380;51.118;4.176;2024-03-02T09:51:46;11.10;13.10
24252;DHT22;12380;51.118;4.176;2024-03-02T09:54:12;11.30;1.00
24252;DHT22;12380;51.118;4.176;2024-03-02T09:56:38;11.40;99.90
24252;DHT22;12380;51.118;4.176;2024-03-02T09:59:04;11.40;1.00
24252;DHT22;12380;51.118;4.176;2024-03-02T10:01:32;11.30;1.00
24252;DHT22;12380;51.118;4.176;2024-03-02T10:03:58;11.60;99.90
24252;DHT22;12380;51.118;4.176;2024-03-02T10:06:25;11.80;99.90
24252;DHT22;12380;51.118;4.176;2024-03-02T10:08:52;11.40;99.90
24252;DHT22;12380;51.118;4.176;2024-03-02T10:11:27;11.00;99.90
24252;DHT22;12380;51.118;4.176;2024-03-02T10:14:12;10.90;1.00
24252;DHT22;12380;51.118;4.176;2024-03-02T10:16:41;10.60;1.00
24252;DHT22;12380;51.118;4.176;2024-03-02T10:19:20;10.60;1.00
24252;DHT22;12380;51.118;4.176;2024-03-02T10:21:46;10.40;99.90
24252;DHT22;12380;51.118;4.176;2024-03-02T10:24:12;10.60;1.00
24252;DHT22;12380;51.118;4.176;2024-03-02T10:26:38;10.80;99.90
24252;DHT22;12380;51.118;4.176;2024-03-02T10:29:04;11.00;99.90
24252;DHT22;12380;51.118;4.176;2024-03-02T10:31:29;10.90;1.00
24252;DHT22;12380;51.118;4.176;2024-03-02T10:33:55;11.00;1.00
24252;DHT22;12380;51.118;4.176;2024-03-02T10:36:21;10.80;1.00
24252;DHT22;12380;51.118;4.176;2024-03-02T10:38:49;11.10;1.00
24252;DHT22;12380;51.118;4.176;2024-03-02T10:41:18;10.70;1.00
24252;DHT22;12380;51.118;4.176;2024-03-02T10:43:44;10.80;1.00
24252;DHT22;12380;51.118;4.176;2024-03-02T10:46:10;10.70;1.00
24252;DHT22;12380;51.118;4.176;2024-03-02T10:48:37;10.90;1.00
24252;DHT22;12380;51.118;4.176;2024-03-02T10:51:04;11.10;1.00
24252;DHT22;12380;51.118;4.176;2024-03-02T10:53:32;11.30;1.00
24252;DHT22;12380;51.118;4.176;2024-03-02T10:55:58;11.30;99.90
24252;DHT22;12380;51.118;4.176;2024-03-02T10:58:30;11.40;1.00
24252;DHT22;12380;51.118;4.176;2024-03-02T11:00:56;11.50;99.90
24252;DHT22;12380;51.118;4.176;2024-03-02T11:03:23;11.60;99.90
24252;DHT22;12380;51.118;4.176;2024-03-02T11:05:49;11.50;99.90
24252;DHT22;12380;51.118;4.176;2024-03-02T11:08:16;11.60;40.60
24252;DHT22;12380;51.118;4.176;2024-03-02T11:10:51;11.30;99.90
24252;DHT22;12380;51.118;4.176;2024-03-02T11:13:19;11.50;1.00
24252;DHT22;12380;51.118;4.176;2024-03-02T11:15:47;11.40;99.90
24252;DHT22;12380;51.118;4.176;2024-03-02T11:18:16;11.40;99.90
24252;DHT22;12380;51.118;4.176;2024-03-02T11:20:44;11.50;99.90
24252;DHT22;12380;51.118;4.176;2024-03-02T11:23:10;11.60;99.90
24252;DHT22;12380;51.118;4.176;2024-03-02T11:25:35;11.50;25.40
24252;DHT22;12380;51.118;4.176;2024-03-02T11:28:02;11.70;99.90
24252;DHT22;12380;51.118;4.176;2024-03-02T11:33:00;12.20;1.00
24252;DHT22;12380;51.118;4.176;2024-03-02T11:35:26;12.50;99.60
24252;DHT22;12380;51.118;4.176;2024-03-02T11:37:52;12.50;1.00
24252;DHT22;12380;51.118;4.176;2024-03-02T11:40:24;12.30;1.00
24252;DHT22;12380;51.118;4.176;2024-03-02T11:42:50;12.30;1.00
24252;DHT22;12380;51.118;4.176;2024-03-02T11:45:25;11.70;1.00
24252;DHT22;12380;51.118;4.176;2024-03-02T11:47:53;11.70;1.00
24252;DHT22;12380;51.118;4.176;2024-03-02T11:50:52;11.60;1.30
24252;DHT22;12380;51.118;4.176;2024-03-02T11:53:11;11.60;81.00
24252;DHT22;12380;51.118;4.176;2024-03-02T11:55:39;11.60;11.00
24252;DHT22;12380;51.118;4.176;2024-03-02T11:58:06;11.70;45.60
24252;DHT22;12380;51.118;4.176;2024-03-02T12:00:34;11.60;1.00
24252;DHT22;12380;51.118;4.176;2024-03-02T12:03:04;11.60;58.50
24252;DHT22;12380;51.118;4.176;2024-03-02T12:05:29;11.70;99.90
24252;DHT22;12380;51.118;4.176;2024-03-02T12:08:02;11.60;1.00
24252;DHT22;12380;51.118;4.176;2024-03-02T12:10:28;11.40;1.00
24252;DHT22;12380;51.118;4.176;2024-03-02T12:13:04;11.40;99.90
24252;DHT22;12380;51.118;4.176;2024-03-02T12:15:30;11.30;99.90
24252;DHT22;12380;51.118;4.176;2024-03-02T12:17:57;11.10;99.90
24252;DHT22;12380;51.118;4.176;2024-03-02T12:20:23;11.20;99.90
24252;DHT22;12380;51.118;4.176;2024-03-02T12:22:50;11.30;99.90
24252;DHT22;12380;51.118;4.176;2024-03-02T12:25:17;11.40;99.90
24252;DHT22;12380;51.118;4.176;2024-03-02T12:27:45;11.50;99.90
24252;DHT22;12380;51.118;4.176;2024-03-02T12:30:11;11.50;99.90
24252;DHT22;12380;51.118;4.176;2024-03-02T12:32:41;11.50;1.00
24252;DHT22;12380;51.118;4.176;2024-03-02T12:35:07;11.80;41.60
24252;DHT22;12380;51.118;4.176;2024-03-02T12:37:32;11.60;1.00
24252;DHT22;12380;51.118;4.176;2024-03-02T12:39:59;11.70;1.00
24252;DHT22;12380;51.118;4.176;2024-03-02T12:42:24;11.90;1.00
24252;DHT22;12380;51.118;4.176;2024-03-02T12:44:53;11.90;99.90
24252;DHT22;12380;51.118;4.176;2024-03-02T12:47:20;12.40;1.00
24252;DHT22;12380;51.118;4.176;2024-03-02T12:49:45;12.60;99.90
24252;DHT22;12380;51.118;4.176;2024-03-02T12:52:12;12.90;20.80
24252;DHT22;12380;51.118;4.176;2024-03-02T12:54:38;12.80;1.00
24252;DHT22;12380;51.118;4.176;2024-03-02T12:57:06;12.50;99.90
24252;DHT22;12380;51.118;4.176;2024-03-02T12:59:32;12.40;21.30
24252;DHT22;12380;51.118;4.176;2024-03-02T13:01:58;12.40;1.00
24252;DHT22;12380;51.118;4.176;2024-03-02T13:04:24;12.40;1.00
24252;DHT22;12380;51.118;4.176;2024-03-02T13:06:51;12.30;1.00
24252;DHT22;12380;51.118;4.176;2024-03-02T13:09:17;12.10;71.00
24252;DHT22;12380;51.118;4.176;2024-03-02T13:11:42;12.10;99.90
24252;DHT22;12380;51.118;4.176;2024-03-02T13:14:08;12.10;99.90
24252;DHT22;12380;51.118;4.176;2024-03-02T13:16:39;12.10;79.20
24252;DHT22;12380;51.118;4.176;2024-03-02T13:19:07;12.30;1.00
24252;DHT22;12380;51.118;4.176;2024-03-02T13:21:33;12.40;99.90
24252;DHT22;12380;51.118;4.176;2024-03-02T13:23:58;12.40;99.90
24252;DHT22;12380;51.118;4.176;2024-03-02T13:26:26;12.50;99.90
24252;DHT22;12380;51.118;4.176;2024-03-02T13:28:52;12.60;99.90
24252;DHT22;12380;51.118;4.176;2024-03-02T13:31:18;12.40;33.60
24252;DHT22;12380;51.118;4.176;2024-03-02T13:33:44;12.30;99.90
24252;DHT22;12380;51.118;4.176;2024-03-02T13:36:09;12.20;99.90
24252;DHT22;12380;51.118;4.176;2024-03-02T13:38:35;12.30;99.90
24252;DHT22;12380;51.118;4.176;2024-03-02T13:41:01;12.30;99.90
24252;DHT22;12380;51.118;4.176;2024-03-02T13:43:27;12.10;99.90
24252;DHT22;12380;51.118;4.176;2024-03-02T13:45:52;12.00;99.90
24252;DHT22;12380;51.118;4.176;2024-03-02T13:48:19;12.00;1.00
24252;DHT22;12380;51.118;4.176;2024-03-02T13:50:47;12.10;99.90
24252;DHT22;12380;51.118;4.176;2024-03-02T13:53:12;12.00;99.90
24252;DHT22;12380;51.118;4.176;2024-03-02T13:55:38;11.90;99.90
24252;DHT22;12380;51.118;4.176;2024-03-02T13:58:03;11.90;99.90
24252;DHT22;12380;51.118;4.176;2024-03-02T14:00:29;11.90;99.90
24252;DHT22;12380;51.118;4.176;2024-03-02T14:02:55;11.90;99.90
24252;DHT22;12380;51.118;4.176;2024-03-02T14:05:20;12.00;1.00
24252;DHT22;12380;51.118;4.176;2024-03-02T14:07:46;12.00;99.90
24252;DHT22;12380;51.118;4.176;2024-03-02T14:10:12;12.00;99.90
24252;DHT22;12380;51.118;4.176;2024-03-02T14:12:38;12.10;99.90
24252;DHT22;12380;51.118;4.176;2024-03-02T14:15:04;12.00;99.90
24252;DHT22;12380;51.118;4.176;2024-03-02T14:17:30;12.10;1.00
24252;DHT22;12380;51.118;4.176;2024-03-02T14:19:57;12.20;99.90
24252;DHT22;12380;51.118;4.176;2024-03-02T14:22:24;12.20;99.90
24252;DHT22;12380;51.118;4.176;2024-03-02T14:24:50;12.20;1.00
24252;DHT22;12380;51.118;4.176;2024-03-02T14:27:15;12.40;1.00
24252;DHT22;12380;51.118;4.176;2024-03-02T14:29:44;12.40;1.00
24252;DHT22;12380;51.118;4.176;2024-03-02T14:32:10;12.40;1.00
24252;DHT22;12380;51.118;4.176;2024-03-02T14:34:35;12.40;1.00
24252;DHT22;12380;51.118;4.176;2024-03-02T14:37:01;12.50;1.00
24252;DHT22;12380;51.118;4.176;2024-03-02T14:39:28;12.50;1.00
24252;DHT22;12380;51.118;4.176;2024-03-02T14:41:54;12.40;1.00
24252;DHT22;12380;51.118;4.176;2024-03-02T14:44:20;12.30;1.00
24252;DHT22;12380;51.118;4.176;2024-03-02T14:46:49;12.30;99.90
24252;DHT22;12380;51.118;4.176;2024-03-02T14:49:14;12.20;1.00
24252;DHT22;12380;51.118;4.176;2024-03-02T14:51:40;12.20;1.00
24252;DHT22;12380;51.118;4.176;2024-03-02T14:54:06;11.90;1.00
24252;DHT22;12380;51.118;4.176;2024-03-02T14:56:31;11.70;1.00
24252;DHT22;12380;51.118;4.176;2024-03-02T14:58:57;11.70;1.00
24252;DHT22;12380;51.118;4.176;2024-03-02T15:01:23;11.70;1.00
24252;DHT22;12380;51.118;4.176;2024-03-02T15:03:50;11.70;1.00
24252;DHT22;12380;51.118;4.176;2024-03-02T15:06:16;11.80;1.00
24252;DHT22;12380;51.118;4.176;2024-03-02T15:08:42;11.70;1.00
24252;DHT22;12380;51.118;4.176;2024-03-02T15:11:08;11.70;1.00
24252;DHT22;12380;51.118;4.176;2024-03-02T15:13:34;11.80;1.00
24252;DHT22;12380;51.118;4.176;2024-03-02T15:16:00;11.80;1.00
24252;DHT22;12380;51.118;4.176;2024-03-02T15:18:25;11.70;1.00
24252;DHT22;12380;51.118;4.176;2024-03-02T15:20:53;11.70;1.00
24252;DHT22;12380;51.118;4.176;2024-03-02T15:23:19;11.60;1.00
24252;DHT22;12380;51.118;4.176;2024-03-02T15:25:44;11.60;1.00
24252;DHT22;12380;51.118;4.176;2024-03-02T15:28:10;11.60;1.00
24252;DHT22;12380;51.118;4.176;2024-03-02T15:30:35;11.60;42.90
24252;DHT22;12380;51.118;4.176;2024-03-02T15:33:01;11.60;26.60
24252;DHT22;12380;51.118;4.176;2024-03-02T15:35:29;11.60;10.50
24252;DHT22;12380;51.118;4.176;2024-03-02T15:37:57;11.50;99.90
24252;DHT22;12380;51.118;4.176;2024-03-02T15:40:23;11.60;99.90
24252;DHT22;12380;51.118;4.176;2024-03-02T15:42:51;11.50;94.50